Time;durP1;ratioP1;P1;durP2;ratioP2;P2;SDS_P1;SDS_P2;PMS_P1;PMS_P2;Temp;Humidity;BMP_temperature;BMP_pressure;BME280_temperature;BME280_humidity;BME280_pressure;Samples;Min_cycle;Max_cycle;Signal;HPM_P1;HPM_P2
2021/07/30 00:02:03;;;;;;;8.55;7.15;;;21.70;99.90;;;;;;5069925;28;20027;-81
2021/07/30 00:04:29;;;;;;;8.23;7.15;;;21.80;99.90;;;;;;5069894;28;20547;-81
2021/07/30 00:06:55;;;;;;;8.68;7.38;;;21.70;99.90;;;;;;5071009;28;20538;-81
2021/07/30 00:09:20;;;;;;;10.55;7.70;;;21.60;99.90;;;;;;5068112;28;20020;-81
2021/07/30 00:11:46;;;;;;;9.10;7.70;;;21.50;99.90;;;;;;5068053;28;20128;-81
2021/07/30 00:14:12;;;;;;;8.25;7.45;;;21.60;99.90;;;;;;5069656;28;20437;-81
2021/07/30 00:16:39;;;;;;;11.00;8.00;;;21.60;99.90;;;;;;5069460;28;24317;-81
2021/07/30 00:19:05;;;;;;;9.60;7.63;;;21.70;99.90;;;;;;5070958;28;20048;-81
2021/07/30 00:21:31;;;;;;;8.40;7.60;;;21.70;99.90;;;;;;5070132;28;20033;-81
2021/07/30 00:23:56;;;;;;;9.75;7.90;;;21.80;99.90;;;;;;5069617;28;20086;-81
2021/07/30 00:26:22;;;;;;;9.10;7.80;;;21.80;99.90;;;;;;5069293;28;20516;-81
2021/07/30 00:28:48;;;;;;;9.20;8.30;;;21.80;99.90;;;;;;5069482;28;20100;-81
2021/07/30 00:31:13;;;;;;;10.38;8.10;;;21.80;99.90;;;;;;5071905;28;20021;-81
2021/07/30 00:33:39;;;;;;;9.05;8.13;;;21.70;99.90;;;;;;5055192;28;20043;-81
2021/07/30 00:36:04;;;;;;;8.90;8.10;;;21.60;99.90;;;;;;5069125;28;20029;-81
2021/07/30 00:38:30;;;;;;;9.18;8.27;;;21.60;99.90;;;;;;5069300;28;20082;-81
2021/07/30 00:40:56;;;;;;;8.52;7.28;;;21.60;99.90;;;;;;5073002;28;20512;-81
2021/07/30 00:43:21;;;;;;;8.52;7.72;;;21.40;99.90;;;;;;5074533;28;20474;-81
2021/07/30 00:45:53;;;;;;;9.55;8.65;;;21.40;99.90;;;;;;5074163;28;20035;-81
2021/07/30 00:48:19;;;;;;;12.30;7.88;;;21.40;99.90;;;;;;5070736;28;20036;-81
2021/07/30 00:50:44;;;;;;;9.88;7.82;;;21.40;99.90;;;;;;5072251;28;20150;-81
2021/07/30 00:53:11;;;;;;;13.60;9.15;;;21.30;99.90;;;;;;5073162;28;20028;-81
2021/07/30 00:55:37;;;;;;;9.40;8.02;;;21.30;99.90;;;;;;5056044;28;20077;-81
2021/07/30 00:58:03;;;;;;;10.00;7.88;;;21.30;99.90;;;;;;5074798;28;20029;-81
2021/07/30 01:00:29;;;;;;;10.07;7.50;;;21.20;99.90;;;;;;5073148;28;20500;-81
2021/07/30 01:02:58;;;;;;;8.25;7.32;;;21.20;99.90;;;;;;5071369;28;20055;-81
2021/07/30 01:05:24;;;;;;;9.65;7.40;;;21.20;99.90;;;;;;5072693;28;20032;-81
2021/07/30 01:07:49;;;;;;;8.20;7.40;;;21.20;99.90;;;;;;5072906;28;20033;-81
2021/07/30 01:10:15;;;;;;;8.55;7.47;;;21.20;99.90;;;;;;5074927;28;20451;-81
2021/07/30 01:12:41;;;;;;;8.55;7.65;;;21.10;99.90;;;;;;5072467;28;20028;-81
2021/07/30 01:15:07;;;;;;;9.32;7.60;;;21.00;99.90;;;;;;5072314;28;20044;-81
2021/07/30 01:17:32;;;;;;;10.07;7.57;;;21.10;99.90;;;;;;5072536;28;20031;-81
2021/07/30 01:19:58;;;;;;;8.50;7.57;;;21.00;99.90;;;;;;5070926;28;20033;-80
2021/07/30 01:22:29;;;;;;;9.07;7.35;;;21.00;99.90;;;;;;5073477;28;20113;-81
2021/07/30 01:24:55;;;;;;;9.75;8.13;;;20.90;99.90;;;;;;5072061;28;20028;-81
2021/07/30 01:27:21;;;;;;;9.48;7.72;;;21.00;1.00;;;;;;5071334;28;20029;-81
2021/07/30 01:29:48;;;;;;;8.57;7.68;;;21.10;99.90;;;;;;5070475;28;20574;-81
2021/07/30 01:32:14;;;;;;;7.78;6.97;;;21.00;99.90;;;;;;5072418;28;20074;-81
2021/07/30 01:34:40;;;;;;;9.65;8.00;;;20.90;99.90;;;;;;5071940;28;20067;-81
2021/07/30 01:37:05;;;;;;;10.82;8.18;;;20.80;1.00;;;;;;5074446;28;20037;-81
2021/07/30 01:39:31;;;;;;;9.07;7.88;;;21.00;1.00;;;;;;5072075;28;20035;-81
2021/07/30 01:41:57;;;;;;;10.40;8.10;;;21.00;99.90;;;;;;5072057;28;20027;-81
2021/07/30 01:44:23;;;;;;;8.73;7.82;;;20.90;99.90;;;;;;5072542;28;20455;-81
2021/07/30 01:46:48;;;;;;;8.90;8.00;;;21.00;99.90;;;;;;5071884;28;20029;-81
2021/07/30 01:49:14;;;;;;;9.85;8.20;;;20.90;99.90;;;;;;5060508;28;20024;-81
2021/07/30 01:51:40;;;;;;;9.07;7.72;;;20.80;1.00;;;;;;5071462;28;20389;-81
2021/07/30 01:54:06;;;;;;;8.32;7.38;;;20.80;1.00;;;;;;5071807;28;20032;-80
2021/07/30 01:56:32;;;;;;;8.65;7.75;;;20.70;1.00;;;;;;5072036;28;20119;-81
2021/07/30 01:58:58;;;;;;;9.20;7.85;;;20.60;1.00;;;;;;5071597;28;20033;-81
2021/07/30 02:01:24;;;;;;;8.70;7.90;;;20.60;1.00;;;;;;5072837;28;20093;-81
2021/07/30 02:03:49;;;;;;;9.52;7.82;;;20.60;1.00;;;;;;5073055;28;20025;-80
2021/07/30 02:06:15;;;;;;;8.43;7.60;;;20.60;1.00;;;;;;5070314;28;20101;-81
2021/07/30 02:08:43;;;;;;;9.18;7.47;;;20.60;1.00;;;;;;5056141;28;20030;-81
2021/07/30 02:11:13;;;;;;;9.43;8.18;;;20.50;1.00;;;;;;5071378;28;20063;-81
2021/07/30 02:16:23;;;;;;;10.07;7.88;;;20.40;1.00;;;;;;5069822;28;20412;-81
2021/07/30 02:18:50;;;;;;;11.40;7.80;;;20.40;1.00;;;;;;5071282;28;20023;-80
2021/07/30 02:21:16;;;;;;;9.27;8.02;;;20.40;1.00;;;;;;5069722;28;20109;-81
2021/07/30 02:23:45;;;;;;;8.30;7.47;;;20.40;1.00;;;;;;5071365;28;20481;-80
2021/07/30 02:26:11;;;;;;;8.88;7.75;;;20.40;1.00;;;;;;5071377;28;20033;-81
2021/07/30 02:28:37;;;;;;;9.75;8.13;;;20.40;1.00;;;;;;5071471;28;20087;-81
2021/07/30 02:31:02;;;;;;;8.45;7.65;;;20.30;1.00;;;;;;5072872;28;20060;-81
2021/07/30 02:33:28;;;;;;;9.95;7.35;;;20.30;1.00;;;;;;5071015;28;20044;-81
2021/07/30 02:35:54;;;;;;;8.80;7.18;;;20.40;1.00;;;;;;5071069;28;20037;-81
2021/07/30 02:38:20;;;;;;;9.93;7.95;;;20.40;1.00;;;;;;5071582;28;20134;-81
2021/07/30 02:40:45;;;;;;;8.75;7.95;;;20.50;1.00;;;;;;5070836;28;20504;-81
2021/07/30 02:43:11;;;;;;;9.18;7.63;;;20.40;1.00;;;;;;5072419;28;20017;-80
2021/07/30 02:45:37;;;;;;;9.02;7.72;;;20.40;1.00;;;;;;5069364;28;20031;-81
2021/07/30 02:48:03;;;;;;;9.75;7.88;;;20.40;1.00;;;;;;5069186;28;20029;-81
2021/07/30 02:50:29;;;;;;;8.95;7.95;;;20.40;1.00;;;;;;5070882;28;20029;-81
2021/07/30 02:52:54;;;;;;;9.57;7.63;;;20.40;1.00;;;;;;5071528;28;20400;-81
2021/07/30 02:55:20;;;;;;;8.82;7.93;;;20.30;1.00;;;;;;5072258;28;20032;-80
2021/07/30 02:57:45;;;;;;;8.50;7.70;;;20.30;1.00;;;;;;5069105;28;20021;-81
2021/07/30 03:00:12;;;;;;;12.45;8.23;;;20.20;1.00;;;;;;5070480;28;20036;-80
2021/07/30 03:02:38;;;;;;;9.18;8.15;;;20.20;1.00;;;;;;5069882;28;20392;-81
2021/07/30 03:05:04;;;;;;;8.95;7.60;;;20.20;1.00;;;;;;5071082;28;20029;-81
2021/07/30 03:07:30;;;;;;;9.32;7.45;;;20.30;1.00;;;;;;5070928;28;20516;-81
2021/07/30 03:09:56;;;;;;;8.77;7.95;;;20.20;1.00;;;;;;5071787;28;20145;-80
2021/07/30 03:12:21;;;;;;;9.82;7.90;;;20.10;1.00;;;;;;5070560;28;20028;-80
2021/07/30 03:14:47;;;;;;;10.90;7.30;;;20.10;1.00;;;;;;5069800;28;20409;-80
2021/07/30 03:17:13;;;;;;;8.55;7.63;;;20.00;1.00;;;;;;5070364;28;20089;-81
2021/07/30 03:19:38;;;;;;;9.07;7.57;;;20.00;1.00;;;;;;5070153;28;20461;-81
2021/07/30 03:22:04;;;;;;;8.73;7.22;;;19.90;1.00;;;;;;5072507;28;20036;-80
2021/07/30 03:24:30;;;;;;;11.73;7.30;;;19.80;1.00;;;;;;5069225;28;20488;-81
2021/07/30 03:26:56;;;;;;;11.85;7.95;;;19.90;1.00;;;;;;5068236;28;20067;-80
2021/07/30 03:29:21;;;;;;;12.63;7.80;;;19.80;1.00;;;;;;5069928;28;20021;-81
2021/07/30 03:31:48;;;;;;;8.70;7.45;;;19.90;1.00;;;;;;5070276;28;20568;-80
2021/07/30 03:34:17;;;;;;;9.90;7.45;;;19.90;1.00;;;;;;5067698;28;20096;-81
2021/07/30 03:36:43;;;;;;;9.77;8.20;;;19.80;1.00;;;;;;5068954;28;20052;-81
2021/07/30 03:39:09;;;;;;;8.75;7.93;;;19.80;1.00;;;;;;5070218;28;20020;-81
2021/07/30 03:41:36;;;;;;;8.65;7.30;;;19.70;1.00;;;;;;5069611;28;20037;-81
2021/07/30 03:44:02;;;;;;;8.80;7.63;;;19.80;1.00;;;;;;5069377;28;20020;-80
2021/07/30 03:46:28;;;;;;;8.68;7.15;;;19.70;1.00;;;;;;5070941;28;20033;-81
2021/07/30 03:48:53;;;;;;;9.07;7.35;;;19.80;1.00;;;;;;5071086;28;20031;-81
2021/07/30 03:51:19;;;;;;;8.65;7.57;;;19.70;1.00;;;;;;5070054;28;20036;-81
2021/07/30 03:53:45;;;;;;;8.52;7.72;;;19.70;1.00;;;;;;5069574;28;20031;-81
2021/07/30 03:56:14;;;;;;;9.52;7.78;;;19.70;1.00;;;;;;5069763;28;20032;-80
2021/07/30 03:58:45;;;;;;;9.98;6.88;;;19.80;1.00;;;;;;5069308;28;20603;-81
2021/07/30 04:01:14;;;;;;;8.30;7.18;;;19.80;1.00;;;;;;5071613;28;20431;-81
2021/07/30 04:03:40;;;;;;;8.68;7.50;;;19.90;1.00;;;;;;5068550;28;20517;-81
2021/07/30 04:06:06;;;;;;;7.95;7.15;;;20.00;1.00;;;;;;5067852;28;20036;-80
2021/07/30 04:08:33;;;;;;;8.80;7.97;;;20.10;1.00;;;;;;5068480;28;20035;-81
2021/07/30 04:11:00;;;;;;;8.93;8.02;;;20.10;1.00;;;;;;5069333;28;20063;-79
2021/07/30 04:13:25;;;;;;;8.90;8.00;;;20.10;1.00;;;;;;5071341;28;20028;-81
2021/07/30 04:15:51;;;;;;;10.13;7.28;;;20.10;1.00;;;;;;5062406;28;20036;-81
2021/07/30 04:18:17;;;;;;;11.38;7.82;;;20.10;1.00;;;;;;5069474;28;20126;-81
2021/07/30 04:20:42;;;;;;;10.15;8.00;;;20.20;1.00;;;;;;5069490;28;20032;-81
2021/07/30 04:23:08;;;;;;;9.18;7.82;;;20.20;1.00;;;;;;5069169;28;20025;-81
2021/07/30 04:25:39;;;;;;;11.68;8.02;;;20.20;1.00;;;;;;5069438;28;20025;-81
2021/07/30 04:28:05;;;;;;;10.23;7.82;;;20.20;1.00;;;;;;5071507;28;20036;-80
2021/07/30 04:30:30;;;;;;;9.07;7.82;;;20.00;1.00;;;;;;5069418;28;20024;-81
2021/07/30 04:32:56;;;;;;;10.02;7.88;;;20.00;1.00;;;;;;5068145;28;20021;-80
2021/07/30 04:35:22;;;;;;;9.40;8.05;;;20.10;1.00;;;;;;5069321;28;20577;-80
2021/07/30 04:37:47;;;;;;;9.75;8.07;;;20.10;1.00;;;;;;5051463;28;20021;-80
2021/07/30 04:40:13;;;;;;;8.50;7.70;;;20.10;1.00;;;;;;5071212;28;20100;-80
2021/07/30 04:42:39;;;;;;;10.13;8.57;;;20.20;1.00;;;;;;5068244;28;20025;-80
2021/07/30 04:45:05;;;;;;;9.23;8.32;;;20.10;1.00;;;;;;5067599;28;20103;-81
2021/07/30 04:47:31;;;;;;;13.20;8.57;;;20.10;1.00;;;;;;5069456;28;20059;-80
2021/07/30 04:49:56;;;;;;;9.60;8.57;;;20.10;1.00;;;;;;5069614;28;20025;-80
2021/07/30 04:52:22;;;;;;;8.68;7.78;;;20.20;1.00;;;;;;5070619;28;20032;-81
2021/07/30 04:54:48;;;;;;;8.95;8.05;;;20.30;1.00;;;;;;5069434;28;20025;-80
2021/07/30 04:57:13;;;;;;;9.73;8.30;;;20.30;1.00;;;;;;5069080;28;20384;-80
2021/07/30 04:59:39;;;;;;;13.05;8.00;;;20.20;1.00;;;;;;5069268;28;20111;-80
2021/07/30 05:02:09;;;;;;;9.80;7.72;;;20.20;1.00;;;;;;5069067;28;20024;-81
2021/07/30 05:04:35;;;;;;;9.85;8.20;;;20.40;1.00;;;;;;5069314;28;20123;-81
2021/07/30 05:07:01;;;;;;;9.63;8.10;;;20.40;1.00;;;;;;5071216;28;20028;-80
2021/07/30 05:09:26;;;;;;;8.68;7.78;;;20.40;1.00;;;;;;5068455;28;20112;-80
2021/07/30 05:11:52;;;;;;;9.40;8.30;;;20.50;1.00;;;;;;5068702;28;20044;-80
2021/07/30 05:14:18;;;;;;;10.70;7.78;;;20.50;1.00;;;;;;5051766;28;20039;-81
2021/07/30 05:16:43;;;;;;;8.80;7.95;;;20.60;1.00;;;;;;5068357;28;20041;-80
2021/07/30 05:19:10;;;;;;;11.07;8.27;;;20.50;1.00;;;;;;5070897;28;20017;-80
2021/07/30 05:21:35;;;;;;;9.07;8.18;;;20.40;1.00;;;;;;5067635;28;20127;-81
2021/07/30 05:24:02;;;;;;;11.85;8.15;;;20.40;1.00;;;;;;5066693;28;20040;-80
2021/07/30 05:26:28;;;;;;;10.07;8.30;;;20.60;1.00;;;;;;5071165;28;20461;-81
2021/07/30 05:28:53;;;;;;;11.35;8.27;;;20.70;1.00;;;;;;5072774;28;20042;-80
2021/07/30 05:31:19;;;;;;;10.98;8.73;;;20.80;1.00;;;;;;5074084;28;20021;-81
2021/07/30 05:33:46;;;;;;;10.90;8.80;;;20.80;1.00;;;;;;5073024;28;20034;-81
2021/07/30 05:36:19;;;;;;;10.05;8.00;;;20.60;1.00;;;;;;5058265;28;20485;-81
2021/07/30 05:38:46;;;;;;;12.27;8.50;;;20.80;1.00;;;;;;5071930;28;20029;-81
2021/07/30 05:41:13;;;;;;;9.48;8.55;;;20.90;1.00;;;;;;5054384;28;20025;-81
2021/07/30 05:43:40;;;;;;;13.23;8.68;;;21.00;1.00;;;;;;5072042;28;20029;-80
2021/07/30 05:46:07;;;;;;;10.82;9.10;;;21.10;1.00;;;;;;5073630;28;20444;-81
2021/07/30 05:48:32;;;;;;;9.63;8.32;;;21.10;1.00;;;;;;5071735;28;20036;-79
2021/07/30 05:50:58;;;;;;;11.45;8.13;;;21.10;1.00;;;;;;5071676;28;20104;-81
2021/07/30 05:53:24;;;;;;;9.32;8.38;;;21.10;1.00;;;;;;5071840;28;20035;-80
2021/07/30 05:55:49;;;;;;;9.07;8.02;;;21.20;1.00;;;;;;5072186;28;20036;-81
2021/07/30 05:58:16;;;;;;;10.65;8.70;;;21.30;1.00;;;;;;5073829;28;20389;-80
2021/07/30 06:00:41;;;;;;;10.00;9.00;;;21.50;1.00;;;;;;5070316;28;20033;-80
2021/07/30 06:03:07;;;;;;;11.82;8.35;;;21.60;1.00;;;;;;5070232;28;20028;-80
2021/07/30 06:05:33;;;;;;;9.93;8.57;;;21.70;1.00;;;;;;5071641;28;20033;-80
2021/07/30 06:08:00;;;;;;;10.25;8.88;;;21.80;1.00;;;;;;5071110;28;20485;-80
2021/07/30 06:10:26;;;;;;;10.50;8.50;;;21.80;1.00;;;;;;5072548;28;20507;-81
2021/07/30 06:12:52;;;;;;;10.15;8.73;;;21.90;1.00;;;;;;5072390;28;20032;-80
2021/07/30 06:15:24;;;;;;;10.85;8.63;;;21.90;1.00;;;;;;5071723;28;20044;-80
2021/07/30 06:17:52;;;;;;;12.05;8.77;;;22.10;1.00;;;;;;5071391;28;20028;-80
2021/07/30 06:20:18;;;;;;;14.32;9.25;;;21.90;1.00;;;;;;5071570;28;20492;-81
2021/07/30 06:22:44;;;;;;;18.60;13.05;;;22.00;1.00;;;;;;5071159;28;20277;-80
2021/07/30 06:25:11;;;;;;;12.30;9.75;;;22.10;1.00;;;;;;5073402;28;20024;-80
2021/07/30 06:27:37;;;;;;;12.13;9.27;;;22.00;1.00;;;;;;5071247;28;20024;-80
2021/07/30 06:30:07;;;;;;;19.15;13.95;;;22.10;1.00;;;;;;5069927;28;20036;-80
2021/07/30 06:32:42;;;;;;;10.60;8.77;;;22.10;1.00;;;;;;5070221;28;20115;-80
2021/07/30 06:35:09;;;;;;;11.40;8.32;;;22.20;1.00;;;;;;5070049;28;20033;-80
2021/07/30 06:37:36;;;;;;;10.30;8.52;;;22.40;1.00;;;;;;5069237;28;20025;-80
2021/07/30 06:40:03;;;;;;;9.52;8.25;;;22.50;1.00;;;;;;5071074;28;20108;-80
2021/07/30 06:42:29;;;;;;;13.88;8.82;;;22.60;1.00;;;;;;5055681;28;20036;-80
2021/07/30 06:44:54;;;;;;;9.90;8.07;;;22.90;1.00;;;;;;5070579;28;20036;-80
2021/07/30 06:47:22;;;;;;;9.40;8.40;;;22.80;99.90;;;;;;5070717;28;20032;-80
2021/07/30 06:49:48;;;;;;;9.55;8.27;;;22.80;99.90;;;;;;5054631;28;20029;-81
2021/07/30 06:52:14;;;;;;;14.32;8.60;;;22.70;99.90;;;;;;5072547;28;20447;-80
2021/07/30 06:54:41;;;;;;;11.40;8.45;;;22.70;1.00;;;;;;5070728;28;20025;-80
2021/07/30 06:57:06;;;;;;;12.10;8.82;;;22.60;99.90;;;;;;5070327;28;20048;-80
2021/07/30 06:59:32;;;;;;;9.27;8.43;;;22.80;99.90;;;;;;5070165;28;20097;-80
2021/07/30 07:02:01;;;;;;;10.57;8.77;;;23.10;99.90;;;;;;5070881;28;20476;-80
2021/07/30 07:04:27;;;;;;;8.90;8.00;;;23.10;99.90;;;;;;5071391;28;20081;-80
2021/07/30 07:06:52;;;;;;;10.65;8.20;;;23.20;99.90;;;;;;5071006;28;20397;-80
2021/07/30 07:09:18;;;;;;;9.88;8.23;;;23.30;99.90;;;;;;5063949;28;20033;-80
2021/07/30 07:11:44;;;;;;;11.00;8.20;;;23.20;99.90;;;;;;5061994;28;21109;-80
2021/07/30 07:14:10;;;;;;;9.02;7.90;;;23.30;99.90;;;;;;5070146;28;20035;-80
2021/07/30 07:16:35;;;;;;;12.60;8.40;;;23.20;99.90;;;;;;5071232;28;20028;-79
2021/07/30 07:19:01;;;;;;;12.73;8.90;;;23.30;99.90;;;;;;5069970;28;20020;-80
2021/07/30 07:21:32;;;;;;;12.68;8.98;;;23.20;99.90;;;;;;5068578;28;20029;-81
2021/07/30 07:23:57;;;;;;;16.48;9.95;;;23.00;99.90;;;;;;5069980;28;20017;-84
2021/07/30 07:26:23;;;;;;;11.27;8.48;;;23.60;99.90;;;;;;5069803;28;20500;-81
2021/07/30 07:28:49;;;;;;;10.90;8.45;;;24.00;99.90;;;;;;5070324;28;20021;-80
2021/07/30 07:31:14;;;;;;;10.25;8.50;;;24.40;99.90;;;;;;5071767;28;20028;-81
2021/07/30 07:33:40;;;;;;;10.65;8.45;;;24.70;99.90;;;;;;5069359;28;20519;-81
2021/07/30 07:36:05;;;;;;;12.13;8.30;;;24.90;99.90;;;;;;5056007;28;20044;-79
2021/07/30 07:38:31;;;;;;;11.50;8.40;;;24.70;99.90;;;;;;5069517;28;20054;-81
2021/07/30 07:40:59;;;;;;;11.15;8.30;;;24.30;99.90;;;;;;5070255;28;20044;-81
2021/07/30 07:43:25;;;;;;;11.35;7.57;;;24.30;99.90;;;;;;5071753;28;20027;-80
2021/07/30 07:45:50;;;;;;;13.38;8.30;;;24.60;99.90;;;;;;5070357;28;20033;-80
2021/07/30 07:48:16;;;;;;;9.30;8.20;;;24.80;99.90;;;;;;5055468;28;20032;-80
2021/07/30 07:50:41;;;;;;;13.30;9.88;;;24.80;99.90;;;;;;5069304;28;20115;-81
2021/07/30 07:53:13;;;;;;;13.27;10.10;;;25.00;99.90;;;;;;5070131;28;20024;-81
2021/07/30 07:55:39;;;;;;;12.90;10.30;;;25.10;99.90;;;;;;5069903;28;20047;-81
2021/07/30 07:58:04;;;;;;;12.18;10.55;;;25.10;99.90;;;;;;5070360;28;20028;-81
2021/07/30 08:00:30;;;;;;;17.02;10.95;;;25.10;99.90;;;;;;5054415;28;20489;-81
2021/07/30 08:02:56;;;;;;;17.83;10.70;;;25.00;99.90;;;;;;5069362;28;20028;-81
2021/07/30 08:05:21;;;;;;;18.00;10.65;;;24.90;99.90;;;;;;5069191;28;20032;-81
2021/07/30 08:07:47;;;;;;;13.48;10.32;;;24.80;99.90;;;;;;5053561;28;20396;-79
2021/07/30 08:10:12;;;;;;;10.77;9.23;;;24.30;99.90;;;;;;5060002;28;20095;-81
2021/07/30 08:12:38;;;;;;;10.23;9.23;;;24.20;99.90;;;;;;5068954;28;20036;-80
2021/07/30 08:15:04;;;;;;;14.73;9.73;;;24.00;99.90;;;;;;5069465;28;20025;-80
2021/07/30 08:17:30;;;;;;;14.77;10.18;;;24.20;99.90;;;;;;5067554;28;20378;-80
2021/07/30 08:19:56;;;;;;;15.93;10.48;;;24.10;99.90;;;;;;5069437;28;20023;-80
2021/07/30 08:22:21;;;;;;;10.95;9.52;;;24.00;99.90;;;;;;5071326;28;20040;-81
2021/07/30 08:24:47;;;;;;;10.95;9.27;;;24.00;99.90;;;;;;5068684;28;20017;-80
2021/07/30 08:27:14;;;;;;;11.75;9.75;;;23.90;99.90;;;;;;5069525;28;20028;-81
2021/07/30 08:29:42;;;;;;;11.18;10.02;;;23.70;99.90;;;;;;5068968;28;20031;-81
2021/07/30 08:32:08;;;;;;;15.43;9.43;;;23.60;99.90;;;;;;5069344;28;20115;-80
2021/07/30 08:34:38;;;;;;;9.93;8.88;;;23.80;99.90;;;;;;5070318;28;20017;-80
2021/07/30 08:37:05;;;;;;;11.07;9.02;;;24.00;99.90;;;;;;5069653;28;20059;-81
2021/07/30 08:39:31;;;;;;;11.38;8.63;;;24.30;99.90;;;;;;5067651;28;20059;-79
2021/07/30 08:42:01;;;;;;;11.95;8.60;;;24.60;99.90;;;;;;5069249;28;20056;-80
2021/07/30 08:44:27;;;;;;;13.18;9.40;;;24.90;99.90;;;;;;5069232;28;20564;-80
2021/07/30 08:46:53;;;;;;;10.95;9.10;;;24.90;99.90;;;;;;5068710;28;20033;-80
2021/07/30 08:49:19;;;;;;;16.42;9.68;;;24.90;99.90;;;;;;5071924;28;20489;-80
2021/07/30 08:51:47;;;;;;;13.10;9.70;;;24.80;99.90;;;;;;5067774;28;20085;-81
2021/07/30 08:54:16;;;;;;;13.85;10.40;;;24.90;99.90;;;;;;5056203;28;20124;-81
2021/07/30 08:56:43;;;;;;;15.57;9.50;;;24.90;99.90;;;;;;5069161;28;20398;-80
2021/07/30 08:59:09;;;;;;;10.68;8.55;;;24.90;99.90;;;;;;5069044;28;20017;-80
2021/07/30 09:01:35;;;;;;;10.27;9.02;;;24.90;99.90;;;;;;5071109;28;20048;-80
2021/07/30 09:04:02;;;;;;;14.65;10.35;;;24.70;99.90;;;;;;5074965;28;20086;-81
2021/07/30 09:06:27;;;;;;;11.98;9.75;;;24.50;99.90;;;;;;5072564;28;20070;-80
2021/07/30 09:09:02;;;;;;;11.07;9.10;;;24.60;99.90;;;;;;5072783;28;20181;-81
2021/07/30 09:11:29;;;;;;;14.82;11.88;;;24.70;99.90;;;;;;5072365;28;20527;-79
2021/07/30 09:13:57;;;;;;;13.73;10.32;;;24.70;99.90;;;;;;5070879;28;20025;-80
2021/07/30 09:16:23;;;;;;;11.82;9.20;;;24.70;99.90;;;;;;5073383;28;20048;-80
2021/07/30 09:18:49;;;;;;;10.13;9.13;;;24.80;99.90;;;;;;5071906;28;20023;-80
2021/07/30 09:21:32;;;;;;;9.20;8.38;;;25.20;99.90;;;;;;5072392;28;20031;-81
2021/07/30 09:24:00;;;;;;;9.07;8.18;;;25.60;99.90;;;;;;5072630;28;20017;-80
2021/07/30 09:26:32;;;;;;;11.23;8.30;;;26.10;99.90;;;;;;5072763;28;20033;-81
2021/07/30 09:28:59;;;;;;;9.48;8.48;;;26.20;99.90;;;;;;5072245;28;20016;-81
2021/07/30 09:31:43;;;;;;;10.93;8.57;;;26.30;99.90;;;;;;5073549;28;20032;-80
2021/07/30 09:34:31;;;;;;;9.52;8.65;;;26.50;99.90;;;;;;5074154;28;20024;-81
2021/07/30 09:37:01;;;;;;;13.55;8.75;;;26.60;99.90;;;;;;5074067;28;20127;-80
2021/07/30 09:39:33;;;;;;;9.63;8.40;;;26.50;99.90;;;;;;5070567;28;20032;-80
2021/07/30 09:42:10;;;;;;;9.10;7.97;;;26.80;99.90;;;;;;5072058;28;20108;-81
2021/07/30 09:44:42;;;;;;;9.10;8.18;;;26.70;99.90;;;;;;5071415;28;20028;-80
2021/07/30 09:47:10;;;;;;;10.20;7.65;;;27.10;99.90;;;;;;5072104;28;20020;-80
2021/07/30 09:49:52;;;;;;;10.73;8.27;;;27.30;99.90;;;;;;5071850;28;20082;-81
2021/07/30 09:52:21;;;;;;;10.15;8.07;;;27.20;99.90;;;;;;5070037;28;20103;-80
2021/07/30 09:54:51;;;;;;;10.68;8.90;;;27.40;99.90;;;;;;5072532;28;20039;-80
2021/07/30 09:57:19;;;;;;;10.00;8.75;;;27.40;99.90;;;;;;5070430;28;20382;-81
2021/07/30 09:59:46;;;;;;;12.02;8.70;;;27.40;99.90;;;;;;5071056;28;20044;-81
2021/07/30 10:02:17;;;;;;;8.98;8.07;;;27.70;99.90;;;;;;5072505;28;20055;-80
2021/07/30 10:04:45;;;;;;;11.88;8.93;;;28.00;99.90;;;;;;5071794;28;20458;-81
2021/07/30 10:07:31;;;;;;;10.05;8.20;;;27.90;99.90;;;;;;5073511;28;20035;-81
2021/07/30 10:12:31;;;;;;;9.63;8.73;;;28.20;99.90;;;;;;5071404;28;20485;-80
2021/07/30 10:15:01;;;;;;;10.32;8.52;;;28.50;99.90;;;;;;5071286;28;20094;-81
2021/07/30 10:17:30;;;;;;;11.40;8.60;;;28.50;99.90;;;;;;5071206;28;20036;-80
2021/07/30 10:19:57;;;;;;;11.82;8.48;;;29.00;99.90;;;;;;5053391;28;20504;-80
2021/07/30 10:22:24;;;;;;;9.48;8.48;;;29.30;99.90;;;;;;5072946;28;20032;-80
2021/07/30 10:24:52;;;;;;;11.40;8.90;;;29.20;99.90;;;;;;5072213;28;20028;-81
2021/07/30 10:27:22;;;;;;;14.70;8.68;;;29.00;99.90;;;;;;5070056;28;20058;-81
2021/07/30 10:30:04;;;;;;;8.88;7.97;;;28.80;99.90;;;;;;5071027;28;20104;-81
2021/07/30 10:32:53;;;;;;;10.13;8.10;;;28.90;99.90;;;;;;5070112;28;20021;-81
2021/07/30 10:35:28;;;;;;;9.15;8.18;;;28.80;99.90;;;;;;5069799;28;20382;-81
2021/07/30 10:38:18;;;;;;;10.43;8.05;;;28.80;99.90;;;;;;5055584;28;20492;-81
2021/07/30 10:41:08;;;;;;;9.18;8.15;;;29.00;99.90;;;;;;5053878;28;20060;-81
2021/07/30 10:43:49;;;;;;;10.40;8.13;;;29.30;99.90;;;;;;5069142;28;20024;-81
2021/07/30 10:46:16;;;;;;;8.63;7.55;;;29.90;99.90;;;;;;5072696;28;20021;-81
2021/07/30 10:48:42;;;;;;;8.55;7.75;;;30.80;99.90;;;;;;5070870;28;20123;-82
2021/07/30 10:51:20;;;;;;;9.05;7.72;;;31.10;99.90;;;;;;5070599;28;20040;-81
2021/07/30 10:53:59;;;;;;;10.70;7.50;;;31.20;99.90;;;;;;5071023;28;20028;-81
2021/07/30 10:56:31;;;;;;;8.20;7.38;;;30.40;99.90;;;;;;5070384;28;20098;-81
2021/07/30 10:58:59;;;;;;;7.72;7.03;;;29.60;99.90;;;;;;5070364;28;20024;-81
2021/07/30 11:01:27;;;;;;;8.75;7.88;;;29.50;99.90;;;;;;5072036;28;20504;-81
2021/07/30 11:03:53;;;;;;;10.25;7.40;;;29.20;99.90;;;;;;5072255;28;20028;-81
2021/07/30 11:06:29;;;;;;;8.75;7.80;;;29.10;99.90;;;;;;5070358;28;20500;-81
2021/07/30 11:09:00;;;;;;;8.32;7.53;;;29.00;99.90;;;;;;5070141;28;20032;-81
2021/07/30 11:11:49;;;;;;;8.25;7.22;;;28.90;99.90;;;;;;5052072;28;20102;-80
2021/07/30 11:14:22;;;;;;;8.10;7.40;;;28.90;99.90;;;;;;5069236;28;20420;-80
2021/07/30 11:16:52;;;;;;;8.40;7.50;;;28.90;99.90;;;;;;5054928;28;20079;-81
2021/07/30 11:19:21;;;;;;;9.27;8.38;;;29.10;99.90;;;;;;5068311;28;20408;-81
2021/07/30 11:21:47;;;;;;;7.75;7.05;;;29.70;99.90;;;;;;5070739;28;20151;-81
2021/07/30 11:24:14;;;;;;;8.32;7.35;;;30.50;99.90;;;;;;5070116;28;20041;-81
2021/07/30 11:26:40;;;;;;;9.23;8.27;;;31.90;99.90;;;;;;5055204;28;20472;-81
2021/07/30 11:29:08;;;;;;;8.65;7.72;;;32.40;99.90;;;;;;5052253;28;20031;-81
2021/07/30 11:31:53;;;;;;;8.18;7.05;;;32.50;99.90;;;;;;5070834;28;20035;-81
2021/07/30 11:34:21;;;;;;;7.70;6.85;;;35.10;99.90;;;;;;5068250;28;20024;-81
2021/07/30 11:36:50;;;;;;;9.63;7.22;;;36.30;99.90;;;;;;5070727;28;20048;-81
2021/07/30 11:39:18;;;;;;;7.60;6.90;;;35.20;99.90;;;;;;5069744;28;20095;-81
2021/07/30 11:41:49;;;;;;;8.25;7.45;;;36.60;99.90;;;;;;5069968;28;20021;-81
2021/07/30 11:44:16;;;;;;;8.15;7.32;;;37.60;99.90;;;;;;5052058;28;20024;-81
2021/07/30 11:46:50;;;;;;;7.93;7.22;;;37.40;99.90;;;;;;5070126;28;20516;-81
2021/07/30 11:49:16;;;;;;;8.23;7.07;;;38.50;99.90;;;;;;5067256;28;20074;-81
2021/07/30 11:51:43;;;;;;;7.75;6.88;;;39.30;99.90;;;;;;5068769;28;20029;-82
2021/07/30 11:54:09;;;;;;;7.78;7.07;;;40.90;99.90;;;;;;5068087;28;20029;-81
2021/07/30 11:56:43;;;;;;;7.75;7.00;;;40.50;99.90;;;;;;5069315;28;20527;-81
2021/07/30 11:59:09;;;;;;;7.47;6.78;;;36.40;99.90;;;;;;5070374;28;20449;-81
2021/07/30 12:01:35;;;;;;;7.85;7.13;;;33.60;99.90;;;;;;5069626;28;20090;-81
2021/07/30 12:04:11;;;;;;;8.10;7.30;;;32.20;99.90;;;;;;5072144;28;20038;-81
2021/07/30 12:06:43;;;;;;;8.73;7.82;;;31.00;99.90;;;;;;5070455;28;20027;-81
2021/07/30 12:09:11;;;;;;;11.52;7.82;;;30.60;99.90;;;;;;5069276;28;20033;-81
2021/07/30 12:11:42;;;;;;;7.40;6.72;;;29.80;99.90;;;;;;5069035;28;20036;-81
2021/07/30 12:14:09;;;;;;;7.50;6.80;;;29.30;99.90;;;;;;5069926;28;20035;-81
2021/07/30 12:16:35;;;;;;;6.53;5.93;;;29.20;99.90;;;;;;5069832;28;20028;-81
2021/07/30 12:19:01;;;;;;;6.25;5.75;;;29.00;99.90;;;;;;5071396;28;20055;-81
2021/07/30 12:21:27;;;;;;;7.15;6.43;;;28.60;99.90;;;;;;5069638;28;20033;-81
2021/07/30 12:24:07;;;;;;;7.78;6.57;;;28.40;99.90;;;;;;5069344;28;20029;-81
2021/07/30 12:26:37;;;;;;;7.20;6.50;;;28.30;99.90;;;;;;5069328;28;20067;-81
2021/07/30 12:29:04;;;;;;;6.82;6.22;;;28.00;99.90;;;;;;5067929;28;20545;-81
2021/07/30 12:31:31;;;;;;;8.40;6.90;;;28.30;99.90;;;;;;5070111;28;20489;-81
2021/07/30 12:34:23;;;;;;;7.00;6.40;;;28.10;99.90;;;;;;5069330;28;20036;-81
2021/07/30 12:36:49;;;;;;;9.13;6.63;;;27.90;99.90;;;;;;5070513;28;20064;-81
2021/07/30 12:39:15;;;;;;;8.48;7.20;;;28.00;99.90;;;;;;5072770;28;20091;-81
2021/07/30 12:41:50;;;;;;;8.27;7.35;;;27.80;99.90;;;;;;5073224;28;20029;-81
2021/07/30 12:44:17;;;;;;;7.90;7.13;;;27.50;99.90;;;;;;5073707;28;20078;-81
2021/07/30 12:46:47;;;;;;;9.55;8.00;;;27.20;99.90;;;;;;5073213;28;20028;-81
2021/07/30 12:49:14;;;;;;;9.07;8.13;;;27.30;99.90;;;;;;5074996;28;20029;-81
2021/07/30 12:51:43;;;;;;;8.90;8.02;;;27.60;99.90;;;;;;5072797;28;20051;-81
2021/07/30 12:54:13;;;;;;;9.25;8.30;;;27.50;99.90;;;;;;5072833;28;20028;-81